Observation data for Fluvanna on 12/08/2018      Previous  Date       Current Mesonet Observations  Soil Data  Daily Summary Page  Observations in Plain Language
KFVS 080600Z 02008KT M01/M01 A3024 RMK A01 T10051010  RH  098%=      5-min Rain = 0
KFVS 080605Z 02008KT M00/M01 A3025 RMK A01 T10041009  RH  098%=      5-min Rain = 0
KFVS 080610Z 02009KT M01/M01 A3025 RMK A01 T10051010  RH  097%=      5-min Rain = 0
KFVS 080615Z 02009KT M01/M01 A3024 RMK A01 T10051010  RH  097%=      5-min Rain = 0
KFVS 080620Z 02007KT M00/M01 A3024 RMK A01 T10041009  RH  097%=      5-min Rain = 0.01
KFVS 080625Z 01008KT M00/M01 A3024 RMK A01 T10041009  RH  097%=      5-min Rain = 0.01
KFVS 080630Z 01008KT M00/M01 A3024 RMK A01 T10041009  RH  097%=      5-min Rain = 0.01
KFVS 080635Z 01008KT M00/M01 A3024 RMK A01 T10041009  RH  097%=      5-min Rain = 0.01
KFVS 080640Z 01008KT M00/M01 A3024 RMK A01 T10041009  RH  097%=      5-min Rain = 0.01
KFVS 080645Z 01007KT M00/M01 A3024 RMK A01 T10041009  RH  097%=      5-min Rain = 0.01
KFVS 080650Z 01008KT M00/M01 A3024 RMK A01 T10041009  RH  098%=      5-min Rain = 0
KFVS 080655Z 01007KT M00/M01 A3024 RMK A01 T10031008  RH  098%=      5-min Rain = 0.01
KFVS 080700Z 01007KT M00/M01 A3024 RMK A01 T10041008  RH  098%=      5-min Rain = 0.01
KFVS 080705Z 00007KT M00/M01 A3024 RMK A01 T10031008  RH  098%=      5-min Rain = 0
KFVS 080710Z 00008KT M00/M01 A3024 RMK A01 T10031008  RH  098%=      5-min Rain = 0.01
KFVS 080715Z 01007KT M00/M01 A3024 RMK A01 T10031007  RH  098%=      5-min Rain = 0
KFVS 080720Z 01006KT M00/M01 A3024 RMK A01 T10031008  RH  098%=      5-min Rain = 0
KFVS 080725Z 01006KT M00/M01 A3024 RMK A01 T10031007  RH  098%=      5-min Rain = 0.01
KFVS 080730Z 01007KT M00/M01 A3024 RMK A01 T10031007  RH  098%=      5-min Rain = 0
KFVS 080735Z 01006KT M00/M01 A3024 RMK A01 T10031007  RH  098%=      5-min Rain = 0
KFVS 080740Z 02007KT M00/M01 A3023 RMK A01 T10031007  RH  098%=      5-min Rain = 0.01
KFVS 080745Z 02006KT M00/M01 A3023 RMK A01 T10031007  RH  098%=      5-min Rain = 0.01
KFVS 080750Z 01007KT M00/M01 A3023 RMK A01 T10031007  RH  098%=      5-min Rain = 0.01
KFVS 080755Z 02007KT M00/M01 A3023 RMK A01 T10031007  RH  098%=      5-min Rain = 0.01
KFVS 080800Z 01006KT M00/M01 A3023 RMK A01 T10031007  RH  098%=      5-min Rain = 0
KFVS 080805Z 01007KT M00/M01 A3022 RMK A01 T10031007  RH  098%=      5-min Rain = 0
KFVS 080810Z 01007KT M00/M01 A3022 RMK A01 T10031007  RH  098%=      5-min Rain = 0
KFVS 080815Z 02006KT M00/M01 A3022 RMK A01 T10031007  RH  098%=      5-min Rain = 0.01
KFVS 080820Z 02006KT M00/M01 A3022 RMK A01 T10021007  RH  098%=      5-min Rain = 0
KFVS 080825Z 02006KT M00/M01 A3022 RMK A01 T10031007  RH  098%=      5-min Rain = 0
KFVS 080830Z 02007KT M00/M01 A3022 RMK A01 T10031007  RH  098%=      5-min Rain = 0.01
KFVS 080835Z 02006KT M00/M01 A3022 RMK A01 T10031007  RH  098%=      5-min Rain = 0.01
KFVS 080840Z 02007KT M00/M01 A3022 RMK A01 T10031007  RH  098%=      5-min Rain = 0
KFVS 080845Z 01007KT M00/M01 A3022 RMK A01 T10031008  RH  097%=      5-min Rain = 0.01
KFVS 080850Z 01007KT M00/M01 A3022 RMK A01 T10031008  RH  097%=      5-min Rain = 0.01
KFVS 080855Z 02007KT M00/M01 A3022 RMK A01 T10031008  RH  097%=      5-min Rain = 0
KFVS 080900Z 02007KT M00/M01 A3022 RMK A01 T10031008  RH  097%=      5-min Rain = 0
KFVS 080905Z 02007KT M00/M01 A3022 RMK A01 T10031008  RH  097%=      5-min Rain = 0
KFVS 080910Z 02006KT M00/M01 A3022 RMK A01 T10031008  RH  097%=      5-min Rain = 0.01
KFVS 080915Z 02006KT M00/M01 A3022 RMK A01 T10031008  RH  097%=      5-min Rain = 0
KFVS 080920Z 02007KT M00/M01 A3022 RMK A01 T10031008  RH  097%=      5-min Rain = 0
KFVS 080925Z 01006KT M00/M01 A3022 RMK A01 T10031008  RH  097%=      5-min Rain = 0.01
KFVS 080930Z 02006KT M00/M01 A3022 RMK A01 T10031008  RH  097%=      5-min Rain = 0
KFVS 080935Z 02006KT M00/M01 A3022 RMK A01 T10031008  RH  097%=      5-min Rain = 0.01
KFVS 080940Z 02006KT M00/M01 A3022 RMK A01 T10031008  RH  097%=      5-min Rain = 0
KFVS 080945Z 02006KT M00/M01 A3022 RMK A01 T10031008  RH  097%=      5-min Rain = 0.01
KFVS 080950Z 02006KT M00/M01 A3021 RMK A01 T10031008  RH  097%=      5-min Rain = 0.01
KFVS 080955Z 02005KT M00/M01 A3021 RMK A01 T10031008  RH  097%=      5-min Rain = 0
KFVS 081000Z 02005KT M00/M01 A3021 RMK A01 T10031008  RH  097%=      5-min Rain = 0.01
KFVS 081005Z 02005KT M00/M01 A3021 RMK A01 T10031008  RH  097%=      5-min Rain = 0
KFVS 081010Z 02005KT M00/M01 A3021 RMK A01 T10031008  RH  097%=      5-min Rain = 0
KFVS 081015Z 03005KT M00/M01 A3021 RMK A01 T10031008  RH  097%=      5-min Rain = 0
KFVS 081020Z 03004KT M00/M01 A3021 RMK A01 T10031008  RH  097%=      5-min Rain = 0.01
KFVS 081025Z 03005KT M00/M01 A3021 RMK A01 T10031008  RH  097%=      5-min Rain = 0.01
KFVS 081030Z 03005KT M00/M01 A3021 RMK A01 T10031008  RH  097%=      5-min Rain = 0
KFVS 081035Z 03004KT M00/M01 A3021 RMK A01 T10031008  RH  098%=      5-min Rain = 0.01
KFVS 081040Z 03004KT M00/M01 A3021 RMK A01 T10031008  RH  098%=      5-min Rain = 0
KFVS 081045Z 03005KT M00/M01 A3021 RMK A01 T10031008  RH  098%=      5-min Rain = 0.01
KFVS 081050Z 02005KT M00/M01 A3021 RMK A01 T10031008  RH  098%=      5-min Rain = 0
KFVS 081055Z 02004KT M00/M01 A3021 RMK A01 T10041009  RH  098%=      5-min Rain = 0
KFVS 081100Z 02005KT M00/M01 A3021 RMK A01 T10041009  RH  098%=      5-min Rain = 0
KFVS 081105Z 02005KT M00/M01 A3021 RMK A01 T10041009  RH  097%=      5-min Rain = 0
KFVS 081110Z 02004KT M00/M01 A3021 RMK A01 T10041009  RH  097%=      5-min Rain = 0
KFVS 081115Z 02005KT M01/M01 A3021 RMK A01 T10051010  RH  097%=      5-min Rain = 0
KFVS 081120Z 02004KT M01/M01 A3022 RMK A01 T10061012  RH  097%=      5-min Rain = 0
KFVS 081125Z 02004KT M01/M01 A3022 RMK A01 T10061012  RH  097%=      5-min Rain = 0
KFVS 081130Z 03004KT M01/M01 A3022 RMK A01 T10061012  RH  097%=      5-min Rain = 0
KFVS 081135Z 02003KT M01/M01 A3023 RMK A01 T10061012  RH  097%=      5-min Rain = 0.01
KFVS 081140Z 03004KT M01/M01 A3023 RMK A01 T10071012  RH  097%=      5-min Rain = 0
KFVS 081145Z 03003KT M01/M01 A3023 RMK A01 T10071013  RH  097%=      5-min Rain = 0
KFVS 081150Z 03003KT M01/M01 A3023 RMK A01 T10081013  RH  097%=      5-min Rain = 0
KFVS 081155Z 03003KT M01/M01 A3023 RMK A01 T10081013  RH  097%=      5-min Rain = 0
KFVS 081200Z 02003KT M01/M01 A3023 RMK A01 T10081013  RH  097%=      5-min Rain = 0
KFVS 081205Z 02003KT M01/M01 A3023 RMK A01 T10081014  RH  097%=      5-min Rain = 0
KFVS 081210Z 02003KT M01/M01 A3023 RMK A01 T10081014  RH  097%=      5-min Rain = 0
KFVS 081215Z 02003KT M01/M01 A3023 RMK A01 T10091014  RH  097%=      5-min Rain = 0
KFVS 081220Z 01003KT M01/M01 A3024 RMK A01 T10091014  RH  097%=      5-min Rain = 0
KFVS 081225Z 01003KT M01/M02 A3024 RMK A01 T10091015  RH  097%=      5-min Rain = 0
KFVS 081230Z 01003KT M01/M02 A3024 RMK A01 T10101015  RH  097%=      5-min Rain = 0
KFVS 081235Z 01003KT M01/M02 A3024 RMK A01 T10101015  RH  097%=      5-min Rain = 0
KFVS 081240Z 01003KT M01/M02 A3024 RMK A01 T10111016  RH  097%=      5-min Rain = 0
KFVS 081245Z 01003KT M01/M02 A3025 RMK A01 T10111016  RH  097%=      5-min Rain = 0
KFVS 081250Z 01003KT M01/M02 A3025 RMK A01 T10121017  RH  097%=      5-min Rain = 0
KFVS 081255Z 01003KT M01/M02 A3025 RMK A01 T10121017  RH  098%=      5-min Rain = 0
KFVS 081300Z 01003KT M01/M02 A3025 RMK A01 T10121016  RH  098%=      5-min Rain = 0
KFVS 081305Z 02003KT M01/M02 A3025 RMK A01 T10121016  RH  098%=      5-min Rain = 0
KFVS 081310Z 02003KT M01/M02 A3026 RMK A01 T10121016  RH  098%=      5-min Rain = 0
KFVS 081315Z 01003KT M01/M02 A3026 RMK A01 T10121016  RH  098%=      5-min Rain = 0
KFVS 081320Z 01002KT M01/M02 A3026 RMK A01 T10121015  RH  098%=      5-min Rain = 0
KFVS 081325Z 01003KT M01/M02 A3026 RMK A01 T10121015  RH  098%=      5-min Rain = 0
KFVS 081330Z 01003KT M01/M02 A3026 RMK A01 T10121015  RH  098%=      5-min Rain = 0
KFVS 081335Z 01003KT M01/M02 A3026 RMK A01 T10121015  RH  098%=      5-min Rain = 0
KFVS 081340Z 01003KT M01/M02 A3027 RMK A01 T10121015  RH  098%=      5-min Rain = 0
KFVS 081345Z 02003KT M01/M02 A3026 RMK A01 T10121016  RH  098%=      5-min Rain = 0
KFVS 081350Z 02003KT M01/M02 A3026 RMK A01 T10121015  RH  098%=      5-min Rain = 0
KFVS 081355Z 02003KT M01/M02 A3026 RMK A01 T10121015  RH  098%=      5-min Rain = 0
KFVS 081400Z 01003KT M01/M02 A3026 RMK A01 T10121015  RH  098%=      5-min Rain = 0
KFVS 081405Z 02003KT M01/M02 A3027 RMK A01 T10121015  RH  098%=      5-min Rain = 0
KFVS 081410Z 01003KT M01/M02 A3027 RMK A01 T10121016  RH  098%=      5-min Rain = 0
KFVS 081415Z 01003KT M01/M02 A3027 RMK A01 T10121016  RH  098%=      5-min Rain = 0
KFVS 081420Z 01003KT M01/M02 A3027 RMK A01 T10121016  RH  098%=      5-min Rain = 0
KFVS 081425Z 02003KT M01/M02 A3027 RMK A01 T10121015  RH  098%=      5-min Rain = 0
KFVS 081430Z 01003KT M01/M02 A3028 RMK A01 T10131016  RH  098%=      5-min Rain = 0
KFVS 081435Z 01003KT M01/M02 A3028 RMK A01 T10121016  RH  098%=      5-min Rain = 0
KFVS 081440Z 01003KT M01/M02 A3028 RMK A01 T10121016  RH  098%=      5-min Rain = 0
KFVS 081445Z 02003KT M01/M02 A3028 RMK A01 T10131016  RH  098%=      5-min Rain = 0
KFVS 081450Z 01003KT M01/M02 A3029 RMK A01 T10131016  RH  098%=      5-min Rain = 0
KFVS 081455Z 00003KT M01/M02 A3029 RMK A01 T10131016  RH  098%=      5-min Rain = 0
KFVS 081500Z 01003KT M01/M02 A3029 RMK A01 T10141017  RH  098%=      5-min Rain = 0
KFVS 081505Z 01003KT M01/M02 A3029 RMK A01 T10141017  RH  098%=      5-min Rain = 0
KFVS 081510Z 02003KT M01/M02 A3029 RMK A01 T10131017  RH  098%=      5-min Rain = 0
KFVS 081515Z 01003KT M01/M02 A303 RMK A01 T10131017  RH  098%=      5-min Rain = 0
KFVS 081520Z 01003KT M01/M02 A303 RMK A01 T10131017  RH  098%=      5-min Rain = 0
KFVS 081525Z 00003KT M01/M02 A303 RMK A01 T10131017  RH  098%=      5-min Rain = 0
KFVS 081530Z 00003KT M01/M02 A303 RMK A01 T10131017  RH  098%=      5-min Rain = 0
KFVS 081535Z 01003KT M01/M02 A303 RMK A01 T10131017  RH  098%=      5-min Rain = 0
KFVS 081540Z 01003KT M01/M02 A303 RMK A01 T10131017  RH  098%=      5-min Rain = 0
KFVS 081545Z 01003KT M01/M02 A303 RMK A01 T10141018  RH  098%=      5-min Rain = 0
KFVS 081550Z 01003KT M01/M02 A303 RMK A01 T10131017  RH  098%=      5-min Rain = 0
KFVS 081555Z 01003KT M01/M02 A3031 RMK A01 T10131017  RH  098%=      5-min Rain = 0
KFVS 081600Z 01003KT M01/M02 A3031 RMK A01 T10131018  RH  098%=      5-min Rain = 0
KFVS 081605Z 00003KT M01/M02 A3031 RMK A01 T10131017  RH  098%=      5-min Rain = 0
KFVS 081610Z 01003KT M01/M02 A3031 RMK A01 T10131018  RH  098%=      5-min Rain = 0
KFVS 081615Z 01003KT M01/M02 A3031 RMK A01 T10131017  RH  098%=      5-min Rain = 0
KFVS 081620Z 00004KT M01/M02 A3031 RMK A01 T10141018  RH  098%=      5-min Rain = 0
KFVS 081625Z 01003KT M01/M02 A3031 RMK A01 T10141019  RH  097%=      5-min Rain = 0
KFVS 081630Z 01003KT M01/M02 A3031 RMK A01 T10131018  RH  097%=      5-min Rain = 0
KFVS 081635Z 01003KT M01/M02 A3031 RMK A01 T10131018  RH  097%=      5-min Rain = 0
KFVS 081640Z 01003KT M01/M02 A3031 RMK A01 T10131018  RH  097%=      5-min Rain = 0
KFVS 081645Z 01003KT M01/M02 A3031 RMK A01 T10121017  RH  097%=      5-min Rain = 0
KFVS 081650Z 01003KT M01/M02 A3031 RMK A01 T10121018  RH  097%=      5-min Rain = 0
KFVS 081655Z 01003KT M01/M02 A3031 RMK A01 T10121017  RH  097%=      5-min Rain = 0
KFVS 081700Z 00003KT M01/M02 A3031 RMK A01 T10131018  RH  097%=      5-min Rain = 0
KFVS 081705Z 00003KT M01/M02 A3031 RMK A01 T10121018  RH  097%=      5-min Rain = 0
KFVS 081710Z 00003KT M01/M02 A3032 RMK A01 T10121018  RH  097%=      5-min Rain = 0
KFVS 081715Z 00003KT M01/M02 A3032 RMK A01 T10121017  RH  097%=      5-min Rain = 0.01
KFVS 081720Z 01003KT M01/M02 A3032 RMK A01 T10111017  RH  097%=      5-min Rain = 0
KFVS 081725Z 01003KT M01/M02 A3032 RMK A01 T10111017  RH  097%=      5-min Rain = 0.01
KFVS 081730Z 01003KT M01/M02 A3031 RMK A01 T10111017  RH  097%=      5-min Rain = 0
KFVS 081735Z 01003KT M01/M02 A3031 RMK A01 T10101016  RH  097%=      5-min Rain = 0.01
KFVS 081740Z 01003KT M01/M01 A3031 RMK A01 T10091014  RH  097%=      5-min Rain = 0.01
KFVS 081745Z 01003KT M01/M02 A3031 RMK A01 T10091015  RH  097%=      5-min Rain = 0
KFVS 081750Z 00003KT M01/M01 A303 RMK A01 T10091014  RH  097%=      5-min Rain = 0.01
KFVS 081755Z 00003KT M01/M01 A303 RMK A01 T10081014  RH  097%=      5-min Rain = 0
KFVS 081800Z 00003KT M01/M01 A303 RMK A01 T10081014  RH  096%=      5-min Rain = 0.01
KFVS 081805Z 36003KT M01/M01 A303 RMK A01 T10071013  RH  097%=      5-min Rain = 0.01
KFVS 081810Z 36003KT M01/M01 A303 RMK A01 T10051010  RH  097%=      5-min Rain = 0
KFVS 081815Z 36003KT M00/M01 A303 RMK A01 T10041009  RH  097%=      5-min Rain = 0.01
KFVS 081820Z 35003KT M01/M01 A303 RMK A01 T10071013  RH  097%=      5-min Rain = 0.01
KFVS 081825Z 35003KT M00/M01 A303 RMK A01 T10041009  RH  097%=      5-min Rain = 0
KFVS 081830Z 35003KT M00/M01 A303 RMK A01 T10041010  RH  097%=      5-min Rain = 0.01
KFVS 081835Z 35004KT M01/M01 A303 RMK A01 T10051011  RH  096%=      5-min Rain = 0
KFVS 081840Z 36003KT M01/M01 A303 RMK A01 T10051012  RH  096%=      5-min Rain = 0.01
KFVS 081845Z 36003KT M01/M01 A303 RMK A01 T10051012  RH  096%=      5-min Rain = 0
KFVS 081850Z 36003KT M00/M01 A303 RMK A01 T10041011  RH  096%=      5-min Rain = 0
KFVS 081855Z 34003KT M00/M01 A3029 RMK A01 T10041010  RH  097%=      5-min Rain = 0
KFVS 081900Z 35003KT M00/M01 A3029 RMK A01 T10041010  RH  097%=      5-min Rain = 0
KFVS 081905Z 36003KT M00/M01 A3028 RMK A01 T10041010  RH  096%=      5-min Rain = 0
KFVS 081910Z 00003KT M00/M01 A3028 RMK A01 T10031009  RH  096%=      5-min Rain = 0
KFVS 081915Z 01003KT M00/M01 A3028 RMK A01 T10031010  RH  096%=      5-min Rain = 0
KFVS 081920Z 00003KT M00/M01 A3028 RMK A01 T10031010  RH  096%=      5-min Rain = 0
KFVS 081925Z 35003KT M00/M01 A3028 RMK A01 T10031008  RH  097%=      5-min Rain = 0
KFVS 081930Z 35003KT M00/M01 A3027 RMK A01 T10031008  RH  097%=      5-min Rain = 0
KFVS 081935Z 34003KT M00/M01 A3027 RMK A01 T10041009  RH  097%=      5-min Rain = 0
KFVS 081940Z 35002KT M00/M01 A3027 RMK A01 T10021009  RH  097%=      5-min Rain = 0
KFVS 081945Z 35002KT M00/M01 A3027 RMK A01 T10011009  RH  095%=      5-min Rain = 0
KFVS 081950Z 36003KT 00/M01 A3026 RMK A01 T00011008  RH  095%=      5-min Rain = 0
KFVS 081955Z 36003KT 00/M01 A3026 RMK A01 T00011009  RH  095%=      5-min Rain = 0
KFVS 082000Z 00003KT 00/M01 A3026 RMK A01 T00021007  RH  095%=      5-min Rain = 0
KFVS 082005Z 36003KT 00/M01 A3026 RMK A01 T00031006  RH  095%=      5-min Rain = 0
KFVS 082010Z 35002KT 00/M01 A3026 RMK A01 T00031006  RH  095%=      5-min Rain = 0
KFVS 082015Z 35003KT 01/M00 A3026 RMK A01 T00051004  RH  095%=      5-min Rain = 0
KFVS 082020Z 36002KT 00/M01 A3026 RMK A01 T00041005  RH  095%=      5-min Rain = 0
KFVS 082025Z 36003KT 00/M01 A3025 RMK A01 T00031005  RH  095%=      5-min Rain = 0
KFVS 082030Z 00003KT 01/M00 A3025 RMK A01 T00051003  RH  095%=      5-min Rain = 0
KFVS 082035Z 36003KT 00/M01 A3025 RMK A01 T00031005  RH  095%=      5-min Rain = 0
KFVS 082040Z 36003KT 01/M00 A3025 RMK A01 T00051003  RH  095%=      5-min Rain = 0
KFVS 082045Z 36003KT 01/M01 A3025 RMK A01 T00051006  RH  094%=      5-min Rain = 0
KFVS 082050Z 34003G9KT 01/M01 A3025 RMK A01 T00061005  RH  093%=      5-min Rain = 0
KFVS 082055Z 34008KT 01/M01 A3025 RMK A01 T00071006  RH  092%=      5-min Rain = 0
KFVS 082100Z 34008KT 01/M01 A3026 RMK A01 T00081005  RH  092%=      5-min Rain = 0
KFVS 082105Z 34007KT 01/M00 A3026 RMK A01 T00091003  RH  093%=      5-min Rain = 0
KFVS 082110Z 34008KT 01/M00 A3025 RMK A01 T00101003  RH  093%=      5-min Rain = 0
KFVS 082115Z 34008KT 01/M00 A3025 RMK A01 T00091004  RH  092%=      5-min Rain = 0
KFVS 082120Z 34009KT 01/M00 A3025 RMK A01 T00091004  RH  092%=      5-min Rain = 0
KFVS 082125Z 35009KT 01/M00 A3025 RMK A01 T00101003  RH  092%=      5-min Rain = 0
KFVS 082130Z 34010KT 01/M00 A3025 RMK A01 T00111003  RH  092%=      5-min Rain = 0
KFVS 082135Z 34009KT 01/M01 A3025 RMK A01 T00101005  RH  091%=      5-min Rain = 0
KFVS 082140Z 35009KT 01/M00 A3025 RMK A01 T00101004  RH  091%=      5-min Rain = 0
KFVS 082145Z 35008KT 01/M00 A3025 RMK A01 T00111002  RH  092%=      5-min Rain = 0
KFVS 082150Z 35009KT 01/M00 A3024 RMK A01 T00131001  RH  091%=      5-min Rain = 0
KFVS 082155Z 34008KT 01/M00 A3024 RMK A01 T00121004  RH  090%=      5-min Rain = 0
KFVS 082200Z 34008KT 01/M00 A3024 RMK A01 T00121002  RH  091%=      5-min Rain = 0
KFVS 082205Z 34008KT 01/M00 A3024 RMK A01 T00121003  RH  091%=      5-min Rain = 0
KFVS 082210Z 34008KT 01/M00 A3024 RMK A01 T00121003  RH  091%=      5-min Rain = 0
KFVS 082215Z 33009KT 01/M00 A3025 RMK A01 T00131003  RH  090%=      5-min Rain = 0
KFVS 082220Z 33009KT 01/M00 A3025 RMK A01 T00131004  RH  090%=      5-min Rain = 0
KFVS 082225Z 34009KT 01/M00 A3025 RMK A01 T00131004  RH  089%=      5-min Rain = 0
KFVS 082230Z 34008KT 01/M00 A3025 RMK A01 T00131003  RH  090%=      5-min Rain = 0
KFVS 082235Z 34008KT 01/M00 A3025 RMK A01 T00131004  RH  090%=      5-min Rain = 0
KFVS 082240Z 33009KT 01/M01 A3025 RMK A01 T00131005  RH  089%=      5-min Rain = 0
KFVS 082245Z 33008KT 01/M01 A3025 RMK A01 T00131005  RH  089%=      5-min Rain = 0
KFVS 082250Z 33007KT 01/M00 A3026 RMK A01 T00131004  RH  090%=      5-min Rain = 0
KFVS 082255Z 34007KT 01/M00 A3026 RMK A01 T00131004  RH  089%=      5-min Rain = 0
KFVS 082300Z 34008KT 01/M01 A3026 RMK A01 T00131007  RH  088%=      5-min Rain = 0
KFVS 082305Z 34008KT 01/M01 A3026 RMK A01 T00121007  RH  088%=      5-min Rain = 0
KFVS 082310Z 34007KT 01/M01 A3026 RMK A01 T00111008  RH  088%=      5-min Rain = 0
KFVS 082315Z 34008KT 01/M01 A3026 RMK A01 T00101009  RH  088%=      5-min Rain = 0
KFVS 082320Z 33008KT 01/M01 A3026 RMK A01 T00101010  RH  087%=      5-min Rain = 0
KFVS 082325Z 33007KT 01/M01 A3026 RMK A01 T00091011  RH  087%=      5-min Rain = 0
KFVS 082330Z 32007KT 01/M01 A3026 RMK A01 T00081011  RH  088%=      5-min Rain = 0
KFVS 082335Z 33007KT 01/M01 A3026 RMK A01 T00061014  RH  087%=      5-min Rain = 0
KFVS 082340Z 34005KT 01/M01 A3026 RMK A01 T00051014  RH  088%=      5-min Rain = 0
KFVS 082345Z 34005KT 01/M01 A3025 RMK A01 T00051013  RH  089%=      5-min Rain = 0
KFVS 082350Z 34005KT 00/M01 A3025 RMK A01 T00041012  RH  089%=      5-min Rain = 0
KFVS 082355Z 34005KT 00/M01 A3025 RMK A01 T00041013  RH  089%=      5-min Rain = 0
KFVS 090000Z 35005KT 00/M01 A3025 RMK A01 T00031013  RH  090%=      5-min Rain = 0
KFVS 090005Z 35005KT 00/M01 A3025 RMK A01 T00031013  RH  090%=      5-min Rain = 0
KFVS 090010Z 34005KT 00/M01 A3026 RMK A01 T00021012  RH  091%=      5-min Rain = 0
KFVS 090015Z 35004KT 00/M01 A3026 RMK A01 T00021013  RH  091%=      5-min Rain = 0
KFVS 090020Z 35004KT 00/M01 A3026 RMK A01 T00011013  RH  091%=      5-min Rain = 0
KFVS 090025Z 35004KT 00/01 A3026 RMK A01 T00-00-14  RH  092%=      5-min Rain = 0
KFVS 090030Z 34004KT M00/M01 A3026 RMK A01 T10011014  RH  092%=      5-min Rain = 0
KFVS 090035Z 35003KT 00/01 A3027 RMK A01 T00-00-14  RH  091%=      5-min Rain = 0
KFVS 090040Z 35003KT M00/M02 A3027 RMK A01 T10021015  RH  091%=      5-min Rain = 0
KFVS 090045Z 34004KT M00/M02 A3027 RMK A01 T10011015  RH  092%=      5-min Rain = 0
KFVS 090050Z 33004KT M00/M01 A3027 RMK A01 T10011014  RH  091%=      5-min Rain = 0
KFVS 090055Z 33005KT M00/M02 A3028 RMK A01 T10011015  RH  092%=      5-min Rain = 0
KFVS 090100Z 33004KT M00/M02 A3028 RMK A01 T10021015  RH  091%=      5-min Rain = 0
KFVS 090105Z 32005KT M00/M02 A3028 RMK A01 T10031016  RH  092%=      5-min Rain = 0
KFVS 090110Z 32005KT M00/M02 A3028 RMK A01 T10031016  RH  092%=      5-min Rain = 0
KFVS 090115Z 32004KT M01/M02 A3028 RMK A01 T10051017  RH  092%=      5-min Rain = 0
KFVS 090120Z 33005KT M00/M02 A3028 RMK A01 T10041016  RH  093%=      5-min Rain = 0
KFVS 090125Z 33004KT M00/M02 A3028 RMK A01 T10031015  RH  092%=      5-min Rain = 0
KFVS 090130Z 34003KT M00/M02 A3028 RMK A01 T10041016  RH  092%=      5-min Rain = 0
KFVS 090135Z 34004KT M01/M02 A3027 RMK A01 T10051016  RH  093%=      5-min Rain = 0
KFVS 090140Z 34004KT M01/M02 A3028 RMK A01 T10051015  RH  093%=      5-min Rain = 0
KFVS 090145Z 34003KT M01/M02 A3028 RMK A01 T10061016  RH  094%=      5-min Rain = 0
KFVS 090150Z 34005KT M01/M01 A3028 RMK A01 T10061014  RH  095%=      5-min Rain = 0
KFVS 090155Z 33006KT M00/M01 A3028 RMK A01 T10031012  RH  095%=      5-min Rain = 0
KFVS 090200Z 33006KT M00/M01 A3028 RMK A01 T10011011  RH  094%=      5-min Rain = 0
KFVS 090205Z 33006KT M00/M01 A3028 RMK A01 T10011013  RH  093%=      5-min Rain = 0
KFVS 090210Z 32005KT M00/M01 A3028 RMK A01 T10011012  RH  093%=      5-min Rain = 0
KFVS 090215Z 33005KT M00/M01 A3028 RMK A01 T10021013  RH  093%=      5-min Rain = 0
KFVS 090220Z 33005KT M00/M01 A3029 RMK A01 T10031014  RH  093%=      5-min Rain = 0
KFVS 090225Z 33005KT M00/M01 A3029 RMK A01 T10041014  RH  094%=      5-min Rain = 0
KFVS 090230Z 32004KT M00/M01 A3029 RMK A01 T10041014  RH  094%=      5-min Rain = 0
KFVS 090235Z 32004KT M00/M01 A3029 RMK A01 T10021012  RH  094%=      5-min Rain = 0
KFVS 090240Z 31004KT M00/M01 A3029 RMK A01 T10021012  RH  093%=      5-min Rain = 0
KFVS 090245Z 30004KT M00/M01 A3029 RMK A01 T10021012  RH  094%=      5-min Rain = 0
KFVS 090250Z 30004KT M00/M01 A3029 RMK A01 T10021012  RH  094%=      5-min Rain = 0
KFVS 090255Z 30003KT M00/M01 A3029 RMK A01 T10031012  RH  094%=      5-min Rain = 0
KFVS 090300Z 32004KT M00/M01 A3029 RMK A01 T10031013  RH  094%=      5-min Rain = 0
KFVS 090305Z 32003KT M00/M01 A3029 RMK A01 T10041013  RH  094%=      5-min Rain = 0
KFVS 090310Z 31003KT M00/M01 A3029 RMK A01 T10041014  RH  094%=      5-min Rain = 0
KFVS 090315Z 31004KT M01/M01 A303 RMK A01 T10051014  RH  095%=      5-min Rain = 0
KFVS 090320Z 30004KT M01/M01 A303 RMK A01 T10051014  RH  095%=      5-min Rain = 0
KFVS 090325Z 31004KT M01/M01 A303 RMK A01 T10051014  RH  095%=      5-min Rain = 0
KFVS 090330Z 31005KT M01/M01 A303 RMK A01 T10051014  RH  095%=      5-min Rain = 0
KFVS 090335Z 31006KT M01/M01 A303 RMK A01 T10051014  RH  095%=      5-min Rain = 0
KFVS 090340Z 31006KT M01/M01 A303 RMK A01 T10051014  RH  094%=      5-min Rain = 0
KFVS 090345Z 31006KT M01/M02 A303 RMK A01 T10051015  RH  093%=      5-min Rain = 0
KFVS 090350Z 31006KT M01/M02 A303 RMK A01 T10051015  RH  094%=      5-min Rain = 0
KFVS 090355Z 31005KT M00/M02 A303 RMK A01 T10041015  RH  093%=      5-min Rain = 0
KFVS 090400Z 31005KT M00/M02 A303 RMK A01 T10041015  RH  093%=      5-min Rain = 0
KFVS 090405Z 31006KT M00/M02 A303 RMK A01 T10041015  RH  093%=      5-min Rain = 0
KFVS 090410Z 31006KT M01/M02 A303 RMK A01 T10051016  RH  093%=      5-min Rain = 0
KFVS 090415Z 31006KT M01/M02 A303 RMK A01 T10051015  RH  094%=      5-min Rain = 0
KFVS 090420Z 31006KT M01/M02 A303 RMK A01 T10051015  RH  093%=      5-min Rain = 0
KFVS 090425Z 31006KT M00/M02 A303 RMK A01 T10041015  RH  093%=      5-min Rain = 0
KFVS 090430Z 30006KT M00/M02 A303 RMK A01 T10041016  RH  093%=      5-min Rain = 0
KFVS 090435Z 30006KT M00/M02 A3031 RMK A01 T10041016  RH  093%=      5-min Rain = 0
KFVS 090440Z 30005KT M01/M02 A3031 RMK A01 T10051017  RH  093%=      5-min Rain = 0
KFVS 090445Z 31005KT M01/M02 A3031 RMK A01 T10061017  RH  093%=      5-min Rain = 0
KFVS 090450Z 31005KT M01/M02 A303 RMK A01 T10071017  RH  094%=      5-min Rain = 0
KFVS 090455Z 32005KT M01/M02 A303 RMK A01 T10071017  RH  094%=      5-min Rain = 0
KFVS 090500Z 32005KT M01/M02 A303 RMK A01 T10071017  RH  094%=      5-min Rain = 0
KFVS 090505Z 31006KT M01/M02 A303 RMK A01 T10081018  RH  093%=      5-min Rain = 0
KFVS 090510Z 31006KT M01/M02 A303 RMK A01 T10081018  RH  094%=      5-min Rain = 0
KFVS 090515Z 30007KT M01/M02 A303 RMK A01 T10071017  RH  094%=      5-min Rain = 0
KFVS 090520Z 31007KT M01/M02 A303 RMK A01 T10061017  RH  093%=      5-min Rain = 0
KFVS 090525Z 31007KT M01/M02 A303 RMK A01 T10061017  RH  093%=      5-min Rain = 0
KFVS 090530Z 32005KT M01/M02 A303 RMK A01 T10071018  RH  093%=      5-min Rain = 0
KFVS 090535Z 32006KT M01/M02 A303 RMK A01 T10091020  RH  094%=      5-min Rain = 0
KFVS 090540Z 32006KT M01/M02 A303 RMK A01 T10091019  RH  094%=      5-min Rain = 0
KFVS 090545Z 32006KT M01/M02 A303 RMK A01 T10091018  RH  094%=      5-min Rain = 0
KFVS 090550Z 33005KT M01/M02 A303 RMK A01 T10091018  RH  094%=      5-min Rain = 0
KFVS 090555Z 33004KT M01/M02 A303 RMK A01 T10121021  RH  094%=      5-min Rain = 0

Page generated in 0.009 seconds.